Terminal Aerodrome Forecast
Issued by NWS Lake Charles, LA

Home | Current Version | Previous Version | Text Only | Print | Product List | Glossary On
Versions: 1 2 3 4 5 6 7 8 9 10 11 12 13 14 15 16
000
FTUS44 KLCH 300703 AAA
TAFBPT
TAF AMD
KBPT 300703Z 3007/3106 VRB03KT 4SM BR SKC
      TEMPO 3007/3011 1/2SM FG
     FM301400 VRB05KT P6SM VCSH SCT025
     FM301700 20007KT P6SM VCTS SCT040CB SCT250
     FM310100 19004KT P6SM SCT250=

USA.gov is the U.S. government's official web portal to all federal, state and local government web resources and services.